Weather History for Bentonville, AR

Change the Weather History Date:

Wednesday, December 21, 2011

  Actual Average Record
Temperature  
Mean Temperature 36 °F -  
Max Temperature 39 °F 46 °F 68 °F (1966)
Min Temperature 32 °F 24 °F 2 °F (1951)
Degree Days  
Heating Degree Days 30    
Moisture  
Dew Point 32 °F    
Average Humidity 86    
Maximum Humidity 93    
Minimum Humidity 81    
Precipitation  
Precipitation 0.00 in - - ()
Sea Level Pressure  
Sea Level Pressure 29.90 in    
Wind  
Wind Speed 8 mph (SSW)    
Max Wind Speed 12 mph    
Max Gust Speed 16 mph    
Visibility 9 miles    
Events      
Averages and records for this station are not official NWS values.
T = Trace of Precipitation, MM = Missing Value Source: NWS Daily Summary

Daily Weather History Graph

Daily Weather History Graph

Search for Another Location

Airport:

Trip Planner

Search our weather history database for the weather conditions in past years. The results will help you decide how hot, cold, wet, or windy it might be!

Date:

Astronomy

Dec. 21, 2011 Rise Set
Actual Time 7:24 AM CST 5:05 PM CST
Civil Twilight 6:55 AM CST 5:34 PM CST
Nautical Twilight 6:23 AM CST 6:06 PM CST
Astronomical Twilight 5:52 AM CST 6:37 PM CST
Moon 4:00 AM CST (12/21) 2:24 PM CST (12/21)
Length of Visible Light 10h 38m
Length of Day
9h 40m
Waning Crescent, 12% of the Moon is Illuminated
Dec 21
Waning Crescent
Dec 24
New
Jan 1
First Quarter
Jan 9
Full
Jan 16
Last Quarter

Hourly Weather History & Observations

Time (CST) Temp. Windchill Dew Point Humidity Pressure Visibility Wind Dir Wind Speed Gust Speed Precip Events Conditions
12:15 AM 39.2 °F 32.5 °F 35.6 °F 87% 29.85 in 8.0 mi WNW 10.4 mph - N/A   Overcast
12:35 AM 37.4 °F 30.8 °F 35.6 °F 93% 29.85 in 9.0 mi WNW 9.2 mph - N/A   Overcast
12:55 AM 37.4 °F 29.8 °F 35.6 °F 93% 29.85 in 10.0 mi West 11.5 mph - N/A   Overcast
1:15 AM 37.4 °F 31.4 °F 33.8 °F 87% 29.85 in 10.0 mi West 8.1 mph - N/A   Overcast
1:35 AM 37.4 °F 32.1 °F 33.8 °F 87% 29.85 in 10.0 mi West 6.9 mph - N/A   Overcast
1:55 AM 37.4 °F 31.4 °F 33.8 °F 87% 29.85 in 10.0 mi West 8.1 mph - N/A   Overcast
2:15 AM 37.4 °F 32.1 °F 33.8 °F 87% 29.86 in 10.0 mi WSW 6.9 mph - N/A   Overcast
2:55 AM 37.4 °F 29.8 °F 35.6 °F 93% 29.85 in 6.0 mi West 11.5 mph - N/A   Overcast
3:15 AM 37.4 °F 31.4 °F 35.6 °F 93% 29.86 in 5.0 mi WSW 8.1 mph - N/A   Overcast
3:35 AM 37.4 °F 30.8 °F 33.8 °F 87% 29.86 in 9.0 mi West 9.2 mph - N/A   Overcast
3:55 AM 37.4 °F 30.8 °F 33.8 °F 87% 29.86 in 7.0 mi West 9.2 mph - N/A   Overcast
4:15 AM 37.4 °F 30.8 °F 35.6 °F 93% 29.86 in 2.5 mi WSW 9.2 mph - N/A   Overcast
4:35 AM 37.4 °F 30.8 °F 33.8 °F 87% 29.86 in 5.0 mi West 9.2 mph - N/A   Overcast
4:55 AM 37.4 °F 30.8 °F 33.8 °F 87% 29.87 in 6.0 mi West 9.2 mph 16.1 mph N/A   Overcast
5:15 AM 35.6 °F 27.5 °F 33.8 °F 93% 29.87 in 4.0 mi West 11.5 mph - N/A   Overcast
6:15 AM 35.6 °F 29.2 °F 32.0 °F 87% 29.90 in 5.0 mi West 8.1 mph - N/A   Overcast
6:35 AM 35.6 °F 28.6 °F 32.0 °F 87% 29.91 in 7.0 mi West 9.2 mph - N/A   Overcast
6:55 AM 35.6 °F 29.2 °F 30.2 °F 81% 29.91 in 10.0 mi West 8.1 mph - N/A   Overcast
7:15 AM 35.6 °F 29.2 °F 32.0 °F 87% 29.92 in 7.0 mi West 8.1 mph - N/A   Overcast
7:35 AM 35.6 °F 30.7 °F 32.0 °F 87% 29.92 in 5.0 mi West 5.8 mph - N/A   Overcast
7:55 AM 35.6 °F 29.9 °F 32.0 °F 87% 29.93 in 5.0 mi West 6.9 mph - N/A   Overcast
8:15 AM 35.6 °F 31.7 °F 32.0 °F 87% 29.93 in 6.0 mi West 4.6 mph - N/A   Overcast
8:35 AM 35.6 °F 30.7 °F 30.2 °F 81% 29.93 in 10.0 mi WSW 5.8 mph - N/A   Overcast
8:55 AM 35.6 °F 30.7 °F 30.2 °F 81% 29.94 in 10.0 mi SW 5.8 mph - N/A   Overcast
9:55 AM 37.4 °F 31.4 °F 32.0 °F 81% 29.94 in 10.0 mi SSW 8.1 mph - N/A   Overcast
10:15 AM 37.4 °F 32.1 °F 32.0 °F 81% 29.95 in 10.0 mi South 6.9 mph - N/A   Overcast
10:35 AM 37.4 °F 32.8 °F 32.0 °F 81% 29.96 in 10.0 mi SSW 5.8 mph - N/A   Overcast
10:55 AM 37.4 °F 33.8 °F 32.0 °F 81% 29.95 in 10.0 mi SSW 4.6 mph - N/A   Overcast
11:35 AM 37.4 °F 31.4 °F 32.0 °F 81% 29.95 in 10.0 mi SSW 8.1 mph - N/A   Overcast
11:55 AM 37.4 °F 32.1 °F 32.0 °F 81% 29.94 in 10.0 mi SSW 6.9 mph - N/A   Overcast
12:15 PM 37.4 °F 31.4 °F 32.0 °F 81% 29.93 in 9.0 mi SW 8.1 mph - N/A   Overcast
12:35 PM 37.4 °F 32.1 °F 33.8 °F 87% 29.92 in 5.0 mi SSW 6.9 mph - N/A   Overcast
12:55 PM 37.4 °F 31.4 °F 32.0 °F 81% 29.92 in 8.0 mi SW 8.1 mph - N/A   Overcast
1:15 PM 37.4 °F 30.3 °F 32.0 °F 81% 29.91 in 10.0 mi SSW 10.4 mph - N/A   Overcast
1:35 PM 37.4 °F 31.4 °F 33.8 °F 87% 29.90 in 10.0 mi SW 8.1 mph - N/A   Overcast
1:55 PM 37.4 °F 32.1 °F 33.8 °F 87% 29.90 in 10.0 mi SW 6.9 mph - N/A   Overcast
2:15 PM 37.4 °F 32.1 °F 33.8 °F 87% 29.90 in 9.0 mi SW 6.9 mph - N/A   Overcast
2:35 PM 37.4 °F 31.4 °F 33.8 °F 87% 29.90 in 10.0 mi SSW 8.1 mph - N/A   Overcast
2:55 PM 39.2 °F 33.6 °F 33.8 °F 81% 29.89 in 8.0 mi South 8.1 mph - N/A   Overcast
3:15 PM 37.4 °F 33.8 °F 33.8 °F 87% 29.89 in 10.0 mi SSW 4.6 mph - N/A   Overcast
3:35 PM 37.4 °F 33.8 °F 33.8 °F 87% 29.89 in 10.0 mi South 4.6 mph - N/A   Overcast
3:55 PM 37.4 °F 34.9 °F 33.8 °F 87% 29.88 in 9.0 mi SE 3.5 mph - N/A   Overcast
4:15 PM 39.2 °F 35.0 °F 33.8 °F 81% 29.88 in 10.0 mi SSE 5.8 mph - N/A   Mostly Cloudy
4:35 PM 37.4 °F 33.8 °F 32.0 °F 81% 29.89 in 10.0 mi SSE 4.6 mph - N/A   Clear
4:55 PM 37.4 °F 33.8 °F 32.0 °F 81% 29.88 in 10.0 mi SE 4.6 mph - N/A   Clear
5:15 PM 35.6 °F 32.8 °F 32.0 °F 87% 29.88 in 10.0 mi SSE 3.5 mph - N/A   Clear
5:35 PM 33.8 °F 29.6 °F 30.2 °F 87% 29.88 in 10.0 mi SE 4.6 mph - N/A   Clear
5:55 PM 35.6 °F 30.7 °F 30.2 °F 81% 29.89 in 10.0 mi SE 5.8 mph - N/A   Clear
6:15 PM 33.8 °F 28.6 °F 30.2 °F 87% 29.89 in 10.0 mi SE 5.8 mph - N/A   Clear
6:35 PM 33.8 °F 28.6 °F 30.2 °F 87% 29.89 in 10.0 mi SE 5.8 mph - N/A   Clear
6:55 PM 33.8 °F 29.6 °F 30.2 °F 87% 29.89 in 10.0 mi SE 4.6 mph - N/A   Clear
7:15 PM 33.8 °F 30.8 °F 30.2 °F 87% 29.90 in 10.0 mi ESE 3.5 mph - N/A   Clear
7:35 PM 33.8 °F 29.6 °F 30.2 °F 87% 29.89 in 10.0 mi SE 4.6 mph - N/A   Clear
7:55 PM 33.8 °F 29.6 °F 30.2 °F 87% 29.90 in 10.0 mi SE 4.6 mph - N/A   Clear
8:35 PM 33.8 °F - 30.2 °F 87% 29.90 in 10.0 mi Calm Calm - N/A   Clear
9:15 PM 33.8 °F 29.6 °F 30.2 °F 87% 29.92 in 9.0 mi SSE 4.6 mph - N/A   Clear
9:35 PM 32.0 °F 27.5 °F 30.2 °F 93% 29.92 in 8.0 mi SSE 4.6 mph - N/A   Clear
9:55 PM 32.0 °F 28.7 °F 28.4 °F 87% 29.92 in 10.0 mi SE 3.5 mph - N/A   Clear
10:15 PM 32.0 °F 27.5 °F 30.2 °F 93% 29.92 in 10.0 mi SE 4.6 mph - N/A   Clear
10:35 PM 32.0 °F 27.5 °F 30.2 °F 93% 29.92 in 10.0 mi SE 4.6 mph - N/A   Clear
10:55 PM 33.8 °F 30.8 °F 30.2 °F 87% 29.92 in 10.0 mi East 3.5 mph - N/A   Clear
11:15 PM 33.8 °F - 30.2 °F 87% 29.92 in 10.0 mi Calm Calm - N/A   Clear
11:35 PM 33.8 °F - 30.2 °F 87% 29.92 in 10.0 mi Calm Calm - N/A   Clear
11:55 PM 33.8 °F 30.8 °F 30.2 °F 87% 29.93 in 10.0 mi ESE 3.5 mph - N/A   Clear